Time;durP1;ratioP1;P1;durP2;ratioP2;P2;SDS_P1;SDS_P2;PMS_P1;PMS_P2;Temp;Humidity;BMP_temperature;BMP_pressure;BME280_temperature;BME280_humidity;BME280_pressure;Samples;Min_cycle;Max_cycle;Signal;HPM_P1;HPM_P2
2021/01/22 00:02:16;;;;;;;150.43;71.13;;;;;;;1.81;64.28;97932.51;259794;1105;114830;-69
2021/01/22 00:07:18;;;;;;;155.67;75.00;;;;;;;1.80;64.63;97916.82;259721;1105;114483;-67
2021/01/22 00:12:20;;;;;;;135.12;65.47;;;;;;;1.82;64.75;97909.75;259819;1105;115090;-67
2021/01/22 00:17:23;;;;;;;151.95;69.03;;;;;;;1.81;64.79;97903.66;259757;1105;115130;-68
2021/01/22 00:22:26;;;;;;;149.62;68.78;;;;;;;1.80;64.71;97903.70;259801;1105;114793;-68
2021/01/22 00:27:28;;;;;;;152.45;72.37;;;;;;;1.80;64.81;97896.72;259773;1105;114720;-68
2021/01/22 00:32:31;;;;;;;149.68;71.15;;;;;;;1.80;64.29;97904.59;259783;1105;114852;-67
2021/01/22 00:37:33;;;;;;;133.78;63.10;;;;;;;1.79;64.75;97894.14;259832;1105;115814;-70
2021/01/22 00:42:36;;;;;;;134.67;62.90;;;;;;;1.78;64.96;97888.05;259810;1105;114406;-72
2021/01/22 00:47:39;;;;;;;128.50;61.98;;;;;;;1.79;65.25;97873.16;259781;1105;115639;-68
2021/01/22 00:52:43;;;;;;;112.80;52.75;;;;;;;1.82;65.19;97865.16;259796;1105;115085;-67
2021/01/22 00:57:46;;;;;;;126.07;57.43;;;;;;;1.81;64.92;97855.59;259751;1105;114837;-68
2021/01/22 01:02:48;;;;;;;129.10;59.42;;;;;;;1.79;64.96;97857.43;258927;1105;114691;-67
2021/01/22 01:07:55;;;;;;;137.52;64.12;;;;;;;1.81;64.95;97861.69;259650;1104;114829;-72
2021/01/22 01:13:03;;;;;;;123.25;55.45;;;;;;;1.80;64.60;97844.27;259823;1105;115455;-73
2021/01/22 01:18:24;;;;;;;126.87;59.93;;;;;;;1.75;64.94;97840.98;259866;1105;114971;-74
2021/01/22 01:23:27;;;;;;;121.05;58.85;;;;;;;1.70;64.77;97839.48;259800;1105;115574;-74
2021/01/22 01:28:33;;;;;;;123.10;58.92;;;;;;;1.64;65.23;97833.61;259796;1105;115874;-71
2021/01/22 01:33:37;;;;;;;;;;;;;;;1.63;65.03;97825.80;259550;1105;114956;-73
2021/01/22 01:38:40;;;;;;;130.43;62.30;;;;;;;1.59;64.99;97816.38;259894;1105;102234;-73
2021/01/22 01:43:42;;;;;;;140.85;64.50;;;;;;;1.56;64.49;97808.64;259841;1105;114850;-69
2021/01/22 01:48:47;;;;;;;145.73;65.07;;;;;;;1.49;64.40;97804.61;259816;1105;114662;-70
2021/01/22 01:53:50;;;;;;;146.13;69.32;;;;;;;1.42;64.80;97802.25;260457;1105;115011;-68
2021/01/22 01:58:53;;;;;;;153.80;71.17;;;;;;;1.40;65.03;97800.65;260606;1105;115265;-69
2021/01/22 02:03:56;;;;;;;141.60;68.87;;;;;;;1.40;64.74;97787.55;260499;1105;114732;-72
2021/01/22 02:09:00;;;;;;;129.78;64.80;;;;;;;1.39;65.17;97777.95;260087;1105;115721;-70
2021/01/22 02:14:03;;;;;;;134.70;64.17;;;;;;;1.41;65.11;97779.59;260046;1105;115022;-70
2021/01/22 02:19:09;;;;;;;;;;;;;;;1.43;65.05;97766.44;259971;1105;115254;-69
2021/01/22 02:24:22;;;;;;;135.37;66.42;;;;;;;1.42;64.68;97759.47;260235;1104;102065;-69
2021/01/22 02:29:27;;;;;;;128.90;59.15;;;;;;;1.42;64.60;97749.83;259807;1105;114520;-66
2021/01/22 02:34:37;;;;;;;124.78;57.83;;;;;;;1.47;65.14;97746.17;259809;1105;115118;-71
2021/01/22 02:39:47;;;;;;;119.07;57.10;;;;;;;1.49;65.35;97734.67;259783;1105;114983;-71
2021/01/22 02:44:53;;;;;;;120.33;57.62;;;;;;;1.58;65.79;97725.55;259814;1105;116105;-68
2021/01/22 02:49:55;;;;;;;113.05;52.27;;;;;;;1.57;65.45;97726.47;259799;1105;114840;-65
2021/01/22 02:54:58;;;;;;;105.20;49.33;;;;;;;1.58;65.50;97713.28;260504;1105;114894;-66
2021/01/22 03:00:21;;;;;;;101.62;50.03;;;;;;;1.64;65.64;97713.00;260501;1105;114403;-66
2021/01/22 03:05:26;;;;;;;84.05;41.00;;;;;;;1.64;65.15;97709.53;260446;1105;114903;-66
2021/01/22 03:10:30;;;;;;;84.03;41.30;;;;;;;1.73;66.04;97700.36;260148;1104;114745;-66
2021/01/22 03:15:38;;;;;;;89.90;44.48;;;;;;;1.78;65.96;97687.89;260165;1105;114492;-66
2021/01/22 03:20:46;;;;;;;81.82;39.78;;;;;;;1.84;65.94;97675.33;260306;1105;114905;-65
2021/01/22 03:25:48;;;;;;;69.07;34.03;;;;;;;1.92;66.06;97676.72;260185;1105;114906;-66
2021/01/22 03:30:51;;;;;;;79.07;36.07;;;;;;;2.04;66.40;97689.25;258319;1105;115222;-66
2021/01/22 03:35:53;;;;;;;66.70;32.25;;;;;;;2.19;66.91;97679.75;260165;1105;114289;-66
2021/01/22 03:40:57;;;;;;;60.80;30.30;;;;;;;2.34;66.77;97664.09;258438;1104;114986;-66
2021/01/22 03:46:00;;;;;;;54.03;28.07;;;;;;;2.50;66.91;97674.63;259773;1103;115333;-64
2021/01/22 03:51:04;;;;;;;56.93;27.00;;;;;;;2.67;66.96;97678.17;259790;1105;115074;-66
2021/01/22 03:56:06;;;;;;;50.17;25.40;;;;;;;2.87;67.01;97682.38;260376;1103;114777;-66
2021/01/22 04:01:08;;;;;;;63.17;26.52;;;;;;;3.02;67.07;97660.52;260408;1105;114983;-65
2021/01/22 04:06:11;;;;;;;50.15;22.45;;;;;;;3.12;66.78;97660.88;259556;1105;115316;-65
2021/01/22 04:11:13;;;;;;;45.63;21.17;;;;;;;3.22;67.31;97657.66;260510;1105;114561;-65
2021/01/22 04:16:16;;;;;;;38.57;19.70;;;;;;;3.39;67.23;97645.37;259765;1105;114750;-66
2021/01/22 04:21:19;;;;;;;38.23;19.80;;;;;;;3.51;67.18;97626.30;259462;1105;115194;-67
2021/01/22 04:26:21;;;;;;;36.25;17.87;;;;;;;3.62;66.66;97623.05;260213;1105;114888;-67
2021/01/22 04:31:24;;;;;;;37.50;17.43;;;;;;;3.72;67.53;97613.70;260483;1104;114645;-67
2021/01/22 04:36:26;;;;;;;36.13;16.65;;;;;;;3.77;67.31;97614.27;260458;1105;114843;-66
2021/01/22 04:41:30;;;;;;;41.10;17.47;;;;;;;3.81;66.80;97615.81;260460;1105;114676;-68
2021/01/22 04:46:36;;;;;;;36.42;16.80;;;;;;;3.92;66.79;97615.19;260148;1105;114880;-71
2021/01/22 04:51:52;;;;;;;37.95;16.93;;;;;;;3.99;66.52;97606.84;259780;1105;115183;-69
2021/01/22 04:56:58;;;;;;;35.10;16.77;;;;;;;3.98;66.46;97610.42;260437;1105;115166;-71
2021/01/22 05:02:01;;;;;;;37.15;15.38;;;;;;;3.97;66.19;97608.73;260097;1105;114917;-67
2021/01/22 05:07:07;;;;;;;33.83;15.07;;;;;;;3.91;66.11;97590.66;260451;1105;114604;-67
2021/01/22 05:12:10;;;;;;;30.57;16.15;;;;;;;3.85;66.16;97582.28;260035;1105;115252;-67
2021/01/22 05:17:16;;;;;;;24.30;13.00;;;;;;;3.80;66.50;97579.89;259779;1105;115103;-69
2021/01/22 05:22:19;;;;;;;23.47;12.87;;;;;;;3.74;66.19;97575.02;259546;1105;114986;-66
2021/01/22 05:27:23;;;;;;;29.40;11.90;;;;;;;3.73;66.01;97583.81;260343;1105;116311;-68
2021/01/22 05:32:30;;;;;;;21.60;10.43;;;;;;;3.74;66.23;97561.86;260227;1105;114837;-69
2021/01/22 05:37:51;;;;;;;19.07;10.08;;;;;;;3.79;66.70;97544.00;260364;1105;114770;-68
2021/01/22 05:42:58;;;;;;;21.10;11.10;;;;;;;3.88;67.06;97556.63;260595;1105;114786;-70
2021/01/22 05:48:00;;;;;;;19.83;9.73;;;;;;;3.98;67.00;97551.67;260299;1104;114866;-70
2021/01/22 05:53:14;;;;;;;13.03;7.03;;;;;;;4.16;67.68;97544.45;260560;1105;114676;-69
2021/01/22 05:58:38;;;;;;;12.20;4.20;;;;;;;4.49;68.08;97529.23;260425;1104;114759;-66
2021/01/22 06:03:45;;;;;;;10.82;3.62;;;;;;;5.16;69.44;97524.13;260043;1105;114157;-69
2021/01/22 06:08:52;;;;;;;8.65;3.05;;;;;;;5.76;69.73;97508.78;260299;1103;115301;-71
2021/01/22 06:13:58;;;;;;;7.40;3.20;;;;;;;6.19;68.55;97517.31;260179;1105;114472;-70
2021/01/22 06:19:06;;;;;;;9.67;3.33;;;;;;;6.54;68.79;97516.66;260394;1105;114531;-70
2021/01/22 06:24:09;;;;;;;6.07;3.30;;;;;;;6.77;67.08;97528.26;260126;1105;115519;-69
2021/01/22 06:29:16;;;;;;;8.20;4.10;;;;;;;6.95;66.49;97520.80;260364;1105;114332;-66
2021/01/22 06:34:19;;;;;;;14.40;4.17;;;;;;;7.06;66.87;97518.22;260060;1105;115266;-65
2021/01/22 06:39:22;;;;;;;7.17;3.80;;;;;;;7.19;66.95;97516.37;260303;1105;115114;-65
2021/01/22 06:44:24;;;;;;;8.37;4.30;;;;;;;7.30;66.37;97515.59;260227;1105;114285;-65
2021/01/22 06:49:32;;;;;;;8.87;3.87;;;;;;;7.37;65.99;97511.56;260401;1105;114415;-66
2021/01/22 06:54:58;;;;;;;9.83;4.30;;;;;;;7.45;66.38;97492.47;259772;1105;114728;-66
2021/01/22 07:00:01;;;;;;;9.45;4.62;;;;;;;7.54;65.61;97489.98;259960;1105;115224;-66
2021/01/22 07:05:35;;;;;;;9.87;4.37;;;;;;;7.65;65.93;97486.53;260050;1105;114146;-65
2021/01/22 07:10:57;;;;;;;9.83;4.07;;;;;;;7.79;66.14;97486.32;259783;1105;114599;-64
2021/01/22 07:16:05;;;;;;;11.43;4.07;;;;;;;7.96;66.10;97481.55;259818;1105;115056;-65
2021/01/22 07:21:22;;;;;;;8.47;3.97;;;;;;;8.09;65.96;97474.36;259759;1104;114693;-63
2021/01/22 07:26:39;;;;;;;7.55;3.40;;;;;;;8.24;65.45;97474.96;260009;1103;114668;-64
2021/01/22 07:31:58;;;;;;;6.43;3.63;;;;;;;8.37;65.37;97481.00;260449;1105;114525;-66
2021/01/22 07:37:01;;;;;;;8.70;3.77;;;;;;;8.49;65.39;97471.25;259799;1105;115111;-65
2021/01/22 07:42:06;;;;;;;7.23;3.63;;;;;;;8.59;65.32;97476.68;260223;1105;114621;-66
2021/01/22 07:47:09;;;;;;;;;;;;;;;8.68;65.01;97470.66;259830;1105;114455;-66
2021/01/22 07:52:12;;;;;;;9.35;3.90;;;;;;;8.74;64.81;97468.36;260487;1105;102026;-65
2021/01/22 07:57:15;;;;;;;7.87;4.03;;;;;;;8.83;64.61;97456.19;260183;1104;114415;-66
2021/01/22 08:02:20;;;;;;;12.90;3.83;;;;;;;8.90;65.09;97451.20;259873;1104;115249;-66
2021/01/22 08:07:40;;;;;;;9.55;3.80;;;;;;;8.99;64.71;97466.38;260497;1105;115546;-66
2021/01/22 08:12:56;;;;;;;9.58;3.87;;;;;;;9.06;64.54;97464.08;260108;1103;114610;-67
2021/01/22 08:17:59;;;;;;;8.73;3.55;;;;;;;9.13;64.67;97458.14;260536;1105;115529;-65
2021/01/22 08:23:02;;;;;;;11.17;3.90;;;;;;;9.23;64.00;97460.89;260466;1105;114645;-66
2021/01/22 08:28:06;;;;;;;8.83;3.33;;;;;;;9.33;64.03;97468.95;260435;1105;114995;-65
2021/01/22 08:33:09;;;;;;;11.15;3.85;;;;;;;9.41;64.28;97472.67;260497;1104;114363;-66
2021/01/22 08:38:13;;;;;;;8.87;3.80;;;;;;;9.47;63.63;97468.64;259791;1105;114921;-66
2021/01/22 08:43:16;;;;;;;7.25;2.40;;;;;;;9.54;63.79;97476.95;259849;1105;114862;-66
2021/01/22 08:48:29;;;;;;;8.85;2.90;;;;;;;9.60;63.71;97466.66;259783;1105;114620;-65
2021/01/22 08:53:33;;;;;;;4.70;2.53;;;;;;;9.69;63.96;97473.03;260483;1105;114363;-66
2021/01/22 08:58:35;;;;;;;3.80;2.30;;;;;;;9.73;63.61;97471.80;260177;1104;114700;-65
2021/01/22 09:03:37;;;;;;;9.80;2.53;;;;;;;9.80;63.38;97464.98;260440;1105;114351;-66
2021/01/22 09:08:53;;;;;;;5.62;2.30;;;;;;;9.85;62.82;97470.77;260202;1105;115275;-69
2021/01/22 09:13:56;;;;;;;4.60;2.30;;;;;;;9.93;63.28;97472.78;260610;1105;115047;-69
2021/01/22 09:19:11;;;;;;;;;;;;;;;;;;;;;
2021/01/22 09:24:17;;;;;;;4.20;2.40;;;;;;;10.09;62.64;97477.64;260567;1105;115602;-67
2021/01/22 09:29:20;;;;;;;5.70;2.47;;;;;;;10.21;62.75;97473.92;259815;1105;115437;-69
2021/01/22 09:34:25;;;;;;;5.80;2.95;;;;;;;10.35;62.36;97472.77;260083;1105;114832;-69
2021/01/22 09:39:33;;;;;;;8.90;3.10;;;;;;;10.49;62.61;97474.23;259818;1105;114777;-69
2021/01/22 09:44:39;;;;;;;10.07;3.00;;;;;;;10.65;62.55;97461.28;259721;1105;115655;-69
2021/01/22 09:49:46;;;;;;;7.80;2.73;;;;;;;10.80;61.96;97464.40;259889;1105;114779;-68
2021/01/22 09:54:49;;;;;;;5.87;2.27;;;;;;;10.95;62.22;97463.05;259701;1105;115958;-69
2021/01/22 09:59:57;;;;;;;5.10;2.07;;;;;;;11.07;61.78;97440.68;259682;1105;176005;-69
2021/01/22 10:04:59;;;;;;;5.07;2.20;;;;;;;11.22;61.42;97445.59;259574;1105;115375;-68
2021/01/22 10:10:04;;;;;;;5.23;2.13;;;;;;;11.34;61.55;97448.00;259712;1105;114902;-68
2021/01/22 10:15:36;;;;;;;4.90;1.97;;;;;;;11.42;61.07;97441.97;259548;1105;115313;-69
2021/01/22 10:20:39;;;;;;;5.80;2.27;;;;;;;11.45;61.39;97441.69;259684;1108;115115;-69
2021/01/22 10:25:43;;;;;;;9.58;2.40;;;;;;;11.51;60.74;97442.93;259741;1109;115034;-69
2021/01/22 10:30:49;;;;;;;9.37;2.13;;;;;;;11.53;60.59;97439.16;259758;1109;114815;-68
2021/01/22 10:35:51;;;;;;;4.77;2.30;;;;;;;11.62;61.04;97445.47;258831;1108;115263;-69
2021/01/22 10:41:04;;;;;;;4.27;1.97;;;;;;;11.83;60.37;97440.81;259675;1108;116923;-81
2021/01/22 10:46:07;;;;;;;6.23;2.70;;;;;;;12.01;60.50;97432.95;259700;1109;115011;-68
2021/01/22 10:51:09;;;;;;;7.55;2.20;;;;;;;12.01;59.63;97413.45;259719;1107;115029;-67
2021/01/22 10:56:11;;;;;;;5.75;2.05;;;;;;;11.99;60.09;97412.74;259731;1105;115759;-67
2021/01/22 11:01:14;;;;;;;7.75;2.12;;;;;;;11.94;59.72;97412.34;259756;1105;115908;-65
2021/01/22 11:06:16;;;;;;;4.97;1.80;;;;;;;11.91;59.15;97400.14;258950;1105;117347;-65
2021/01/22 11:11:19;;;;;;;6.70;2.17;;;;;;;11.86;59.40;97394.41;259868;1105;115738;-66
2021/01/22 11:16:21;;;;;;;7.45;2.08;;;;;;;11.83;59.56;97405.33;259285;1105;115339;-66
2021/01/22 11:21:23;;;;;;;7.08;2.30;;;;;;;11.80;59.59;97397.62;259736;1105;115702;-66
2021/01/22 11:26:27;;;;;;;5.63;2.40;;;;;;;11.78;58.75;97389.75;259781;1105;115089;-65
2021/01/22 11:31:29;;;;;;;5.67;2.40;;;;;;;11.74;59.23;97382.19;259873;1105;114929;-65
2021/01/22 11:36:32;;;;;;;5.67;2.30;;;;;;;11.72;58.99;97376.16;259781;1105;114734;-65
2021/01/22 11:41:34;;;;;;;9.20;2.15;;;;;;;11.72;58.91;97384.15;259705;1108;116073;-66
2021/01/22 11:46:40;;;;;;;5.47;2.03;;;;;;;11.69;59.06;97379.97;259760;1105;114975;-66
2021/01/22 11:51:43;;;;;;;7.40;2.00;;;;;;;11.68;58.67;97380.93;259750;1106;114939;-66
2021/01/22 11:56:50;;;;;;;3.33;2.20;;;;;;;11.70;58.77;97383.47;259725;1105;115167;-66
2021/01/22 12:01:53;;;;;;;8.37;2.17;;;;;;;11.72;58.54;97389.48;259764;1105;114906;-66
2021/01/22 12:06:55;;;;;;;4.95;2.12;;;;;;;11.72;58.17;97387.68;259910;1105;114743;-66
2021/01/22 12:11:57;;;;;;;6.33;2.73;;;;;;;11.70;59.10;97386.97;259777;1105;114794;-66
2021/01/22 12:16:59;;;;;;;10.00;2.50;;;;;;;11.70;58.23;97380.80;259786;1105;114850;-66
2021/01/22 12:22:03;;;;;;;5.93;2.40;;;;;;;11.66;58.51;97380.25;259752;1105;116110;-67
2021/01/22 12:27:05;;;;;;;5.87;2.67;;;;;;;11.66;58.40;97379.41;259656;1105;114858;-67
2021/01/22 12:32:07;;;;;;;11.35;3.15;;;;;;;11.66;58.58;97387.41;260058;1103;114876;-66
2021/01/22 12:37:10;;;;;;;6.40;2.83;;;;;;;11.64;58.57;97392.86;259916;1105;115055;-67
2021/01/22 12:42:13;;;;;;;6.77;2.70;;;;;;;11.62;58.51;97394.84;259761;1104;114739;-67
2021/01/22 12:47:16;;;;;;;7.40;3.17;;;;;;;11.64;58.63;97397.36;259742;1105;115238;-78
2021/01/22 12:52:19;;;;;;;8.87;3.60;;;;;;;11.62;58.20;97386.86;259712;1105;114812;-68
2021/01/22 12:57:21;;;;;;;9.13;3.52;;;;;;;11.64;58.38;97400.02;259697;1105;114929;-67
2021/01/22 13:02:25;;;;;;;10.73;4.10;;;;;;;11.67;58.26;97399.73;259763;1105;115374;-68
2021/01/22 13:07:28;;;;;;;9.33;3.60;;;;;;;11.67;58.32;97391.75;259708;1105;115764;-67
2021/01/22 13:12:30;;;;;;;8.10;3.17;;;;;;;11.66;58.42;97404.23;259842;1105;115082;-67
2021/01/22 13:17:34;;;;;;;9.50;3.27;;;;;;;11.66;58.52;97414.89;259727;1105;115021;-68
2021/01/22 13:22:37;;;;;;;6.65;2.75;;;;;;;11.66;58.44;97416.72;259707;1105;114849;-68
2021/01/22 13:27:39;;;;;;;9.00;3.43;;;;;;;11.64;57.88;97414.18;259739;1105;115837;-67
2021/01/22 13:32:42;;;;;;;9.33;3.10;;;;;;;11.60;58.77;97423.45;259700;1105;114877;-68
2021/01/22 13:37:44;;;;;;;12.50;3.17;;;;;;;11.55;58.02;97421.22;259654;1107;114904;-68
2021/01/22 13:42:53;;;;;;;9.27;3.33;;;;;;;11.52;58.44;97434.81;259276;1105;115870;-71
2021/01/22 13:48:18;;;;;;;7.37;3.10;;;;;;;11.49;58.10;97442.25;259710;1105;114892;-71
2021/01/22 13:53:24;;;;;;;8.03;3.57;;;;;;;11.45;58.35;97449.68;258124;1105;114888;-72
2021/01/22 13:58:32;;;;;;;17.48;3.77;;;;;;;11.41;58.02;97458.91;259918;1105;114977;-71
2021/01/22 14:03:35;;;;;;;4.97;2.57;;;;;;;11.35;58.78;97472.80;259631;1105;115333;-71
2021/01/22 14:08:38;;;;;;;5.77;2.63;;;;;;;11.27;58.58;97475.30;259686;1105;115157;-71
2021/01/22 14:13:40;;;;;;;8.03;3.02;;;;;;;11.23;59.02;97481.89;259761;1105;114717;-71
2021/01/22 14:18:42;;;;;;;8.53;3.10;;;;;;;11.11;59.45;97479.35;259779;1105;114946;-71
2021/01/22 14:23:45;;;;;;;7.17;2.23;;;;;;;10.97;59.00;97471.76;259754;1105;114843;-71
2021/01/22 14:28:47;;;;;;;5.03;2.37;;;;;;;10.88;58.85;97483.21;259706;1105;114980;-71
2021/01/22 14:33:50;;;;;;;7.73;2.73;;;;;;;10.81;59.56;97487.39;259710;1105;115090;-71
2021/01/22 14:38:52;;;;;;;7.37;2.67;;;;;;;10.73;60.04;97493.36;259752;1105;114865;-70
2021/01/22 14:43:55;;;;;;;8.43;2.90;;;;;;;10.67;59.55;97498.41;259807;1105;115785;-71
2021/01/22 14:48:57;;;;;;;6.60;2.40;;;;;;;10.62;60.01;97504.11;259798;1105;114860;-72
2021/01/22 14:53:59;;;;;;;9.53;5.77;;;;;;;10.53;60.20;97505.77;259707;1105;115190;-72
2021/01/22 14:59:18;;;;;;;9.17;3.60;;;;;;;10.41;60.22;97509.47;259721;1105;114936;-73
2021/01/22 15:04:25;;;;;;;8.03;3.87;;;;;;;10.34;60.31;97510.97;259723;1105;114737;-72
2021/01/22 15:09:37;;;;;;;10.57;3.87;;;;;;;10.16;60.86;97506.23;259810;1105;114861;-72
2021/01/22 15:14:46;;;;;;;11.90;4.20;;;;;;;10.00;61.02;97507.65;259805;1105;115319;-73
2021/01/22 15:19:53;;;;;;;12.28;4.78;;;;;;;9.84;61.44;97516.89;259676;1105;115048;-72
2021/01/22 15:25:18;;;;;;;9.23;4.00;;;;;;;9.74;62.14;97520.45;259687;1105;114795;-71
2021/01/22 15:30:25;;;;;;;9.48;4.70;;;;;;;9.64;62.09;97520.36;260000;1105;115045;-72
2021/01/22 15:36:09;;;;;;;15.77;6.10;;;;;;;9.50;62.11;97513.53;259889;1105;114806;-71
2021/01/22 15:41:35;;;;;;;;;;;;;;;;;;;;;
2021/01/22 15:46:41;;;;;;;24.07;10.40;;;;;;;9.29;62.67;97529.41;259777;1105;114907;-70
2021/01/22 15:51:44;;;;;;;14.87;7.40;;;;;;;9.18;62.60;97535.59;259698;1105;114940;-70
2021/01/22 15:56:46;;;;;;;16.20;6.78;;;;;;;9.05;63.15;97532.23;259658;1105;115669;-69
2021/01/22 16:01:48;;;;;;;26.10;8.10;;;;;;;8.96;64.01;97540.92;259757;1105;114925;-69
2021/01/22 16:06:51;;;;;;;15.47;6.87;;;;;;;8.85;64.35;97541.77;259629;1105;115320;-70
2021/01/22 16:11:56;;;;;;;24.23;6.77;;;;;;;8.85;64.51;97541.77;259741;1105;114813;-70
2021/01/22 16:16:59;;;;;;;9.93;5.53;;;;;;;8.89;64.68;97545.86;259699;1105;115103;-70
2021/01/22 16:22:01;;;;;;;12.82;6.67;;;;;;;8.88;64.52;97540.69;259896;1105;114957;-70
2021/01/22 16:27:04;;;;;;;16.03;6.70;;;;;;;8.85;64.41;97531.16;259831;1105;115590;-70
2021/01/22 16:32:12;;;;;;;15.60;6.37;;;;;;;8.73;64.37;97534.80;259700;1105;115290;-70
2021/01/22 16:37:24;;;;;;;16.30;7.10;;;;;;;8.61;64.39;97541.89;259691;1105;115896;-72
2021/01/22 16:42:33;;;;;;;19.90;7.73;;;;;;;8.50;63.89;97540.08;259724;1105;114965;-67
2021/01/22 16:48:04;;;;;;;22.35;8.15;;;;;;;8.42;64.40;97534.52;259714;1105;115414;-72
2021/01/22 16:53:19;;;;;;;34.77;8.50;;;;;;;8.34;65.37;97538.70;259676;1105;115076;-71
2021/01/22 16:58:45;;;;;;;23.53;8.83;;;;;;;8.30;65.21;97533.64;259703;1105;114884;-71
2021/01/22 17:04:11;;;;;;;24.80;10.00;;;;;;;8.35;65.63;97537.73;259704;1105;114837;-71
2021/01/22 17:09:42;;;;;;;;;;;;;;;;;;;;;
2021/01/22 17:14:55;;;;;;;24.20;9.18;;;;;;;8.41;65.43;97534.65;259594;1105;115155;-72
2021/01/22 17:20:17;;;;;;;21.93;8.53;;;;;;;8.40;65.74;97532.97;259739;1105;115257;-70
2021/01/22 17:25:52;;;;;;;22.17;8.90;;;;;;;8.34;65.19;97528.10;259733;1106;116232;-70
2021/01/22 17:31:24;;;;;;;22.95;8.18;;;;;;;8.43;66.58;97516.83;259692;1104;115763;-70
2021/01/22 17:36:43;;;;;;;22.10;8.60;;;;;;;8.50;66.25;97496.83;259848;1105;115524;-68
2021/01/22 17:41:55;;;;;;;13.80;5.72;;;;;;;8.66;66.41;97497.31;259702;1106;115132;-70
2021/01/22 17:47:11;;;;;;;12.43;6.17;;;;;;;8.85;66.07;97485.23;259675;1105;115287;-70
2021/01/22 17:52:27;;;;;;;14.28;6.12;;;;;;;9.07;66.45;97469.28;259673;1105;114861;-68
2021/01/22 17:57:43;;;;;;;13.93;5.90;;;;;;;9.15;66.22;97479.27;259677;1105;117125;-70
2021/01/22 18:03:11;;;;;;;15.90;8.00;;;;;;;9.17;65.38;97488.80;259699;1105;114843;-70
2021/01/22 18:08:16;;;;;;;15.72;7.67;;;;;;;9.17;65.19;97487.92;259715;1105;114849;-69
2021/01/22 18:13:33;;;;;;;18.07;8.63;;;;;;;9.14;65.01;97494.34;259719;1105;115291;-69
2021/01/22 18:18:47;;;;;;;18.33;9.47;;;;;;;9.14;64.81;97497.00;259637;1109;115059;-69
2021/01/22 18:24:03;;;;;;;20.50;10.47;;;;;;;9.17;64.77;97488.80;259710;1105;116524;-68
2021/01/22 18:29:12;;;;;;;23.27;11.20;;;;;;;9.16;64.41;97488.91;259740;1105;115259;-69
2021/01/22 18:34:42;;;;;;;21.93;10.30;;;;;;;9.09;64.88;97498.33;259658;1105;116622;-69
2021/01/22 18:39:57;;;;;;;23.67;11.27;;;;;;;8.97;64.32;97498.36;259618;1105;116264;-70
2021/01/22 18:45:38;;;;;;;20.67;12.17;;;;;;;8.94;64.38;97508.37;259657;1105;114971;-70
2021/01/22 18:50:56;;;;;;;22.63;12.17;;;;;;;8.80;63.49;97508.61;259526;1105;115273;-70
2021/01/22 18:56:34;;;;;;;21.10;11.47;;;;;;;8.79;64.71;97510.42;259632;1105;114862;-70
2021/01/22 19:02:11;;;;;;;22.17;11.83;;;;;;;8.92;64.30;97513.79;259507;1105;117303;-70
2021/01/22 19:07:30;;;;;;;;;;;;;;;;;;;;;
2021/01/22 19:12:46;;;;;;;29.10;14.27;;;;;;;8.85;63.63;97501.14;259661;1105;115441;-71
2021/01/22 19:18:05;;;;;;;25.43;13.20;;;;;;;8.57;62.86;97516.59;259669;1105;115205;-71
2021/01/22 19:23:33;;;;;;;26.47;12.27;;;;;;;8.27;63.20;97519.78;259792;1105;115276;-71
2021/01/22 19:29:18;;;;;;;22.75;12.03;;;;;;;7.98;62.84;97519.34;259746;1105;115268;-71
2021/01/22 19:34:24;;;;;;;23.87;11.87;;;;;;;7.88;64.21;97521.00;259680;1105;115028;-68
2021/01/22 19:39:43;;;;;;;;;;;;;;;;;;;;;
2021/01/22 19:44:48;;;;;;;26.10;12.90;;;;;;;7.59;63.97;97501.05;259758;1105;114985;-67
2021/01/22 19:50:00;;;;;;;25.65;12.37;;;;;;;7.42;63.55;97504.11;259686;1105;115817;-67
2021/01/22 19:55:05;;;;;;;26.23;12.07;;;;;;;7.31;63.83;97498.78;259735;1105;114993;-70
2021/01/22 20:00:12;;;;;;;23.43;12.47;;;;;;;7.22;63.73;97496.80;259842;1105;115078;-68
2021/01/22 20:05:15;;;;;;;23.70;12.43;;;;;;;7.14;64.55;97505.30;259738;1105;116395;-69
2021/01/22 20:10:18;;;;;;;26.33;12.37;;;;;;;7.10;64.11;97509.13;259679;1106;115102;-65
2021/01/22 20:15:21;;;;;;;22.87;12.07;;;;;;;7.03;64.27;97503.44;259623;1105;115898;-66
2021/01/22 20:20:24;;;;;;;25.17;13.83;;;;;;;6.98;64.78;97505.55;260036;1105;115204;-68
2021/01/22 20:25:27;;;;;;;24.53;12.20;;;;;;;6.92;64.36;97497.22;259752;1105;115073;-67
2021/01/22 20:30:34;;;;;;;21.65;11.93;;;;;;;6.81;64.08;97488.27;259797;1105;114851;-67
2021/01/22 20:35:36;;;;;;;19.93;11.83;;;;;;;6.71;64.29;97497.80;259728;1105;114832;-67
2021/01/22 20:40:40;;;;;;;26.70;13.27;;;;;;;6.67;64.79;97491.05;259842;1105;115000;-68
2021/01/22 20:45:42;;;;;;;23.95;14.13;;;;;;;6.61;64.30;97489.67;259763;1105;114937;-68
2021/01/22 20:50:44;;;;;;;36.13;16.17;;;;;;;6.55;64.78;97487.46;259741;1106;115148;-66
2021/01/22 20:55:46;;;;;;;29.03;15.10;;;;;;;6.49;64.96;97502.91;259742;1105;115495;-70
2021/01/22 21:00:49;;;;;;;27.80;15.77;;;;;;;6.46;64.25;97497.86;259733;1105;115297;-70
2021/01/22 21:05:52;;;;;;;30.87;16.33;;;;;;;6.44;65.34;97490.03;259704;1105;115495;-69
2021/01/22 21:10:54;;;;;;;28.03;16.87;;;;;;;6.40;64.30;97491.20;259684;1105;115072;-70
2021/01/22 21:16:00;;;;;;;29.67;15.83;;;;;;;6.28;64.71;97487.59;259420;1105;115265;-69
2021/01/22 21:21:16;;;;;;;;;;;;;;;;;;;;;
2021/01/22 21:26:35;;;;;;;27.93;16.23;;;;;;;6.03;64.01;97479.70;259698;1105;114864;-68
2021/01/22 21:31:47;;;;;;;32.50;17.42;;;;;;;5.92;64.36;97478.64;259668;1105;115554;-70
2021/01/22 21:36:53;;;;;;;31.55;17.10;;;;;;;5.85;64.92;97482.62;259744;1105;114867;-70
2021/01/22 21:42:07;;;;;;;33.20;18.73;;;;;;;5.75;65.12;97475.43;259718;1105;115164;-71
2021/01/22 21:47:19;;;;;;;35.03;19.90;;;;;;;5.67;64.17;97468.01;259688;1105;115642;-74
2021/01/22 21:52:50;;;;;;;34.70;18.63;;;;;;;5.59;64.49;97470.33;259713;1105;114866;-70
2021/01/22 21:58:05;;;;;;;34.90;19.03;;;;;;;5.47;64.51;97474.65;259624;1105;115203;-70
2021/01/22 22:03:13;;;;;;;46.08;21.35;;;;;;;5.45;65.42;97471.25;259853;1105;115238;-68
2021/01/22 22:08:15;;;;;;;39.37;21.07;;;;;;;5.48;65.81;97464.94;259567;1105;115248;-66
2021/01/22 22:13:18;;;;;;;41.15;22.05;;;;;;;5.50;64.90;97468.30;259835;1105;115746;-68
2021/01/22 22:18:20;;;;;;;38.60;20.57;;;;;;;5.54;65.94;97473.28;259904;1105;115617;-69
2021/01/22 22:23:23;;;;;;;37.50;20.50;;;;;;;5.56;65.51;97455.54;259699;1105;115137;-69
2021/01/22 22:28:25;;;;;;;42.08;21.37;;;;;;;5.58;65.51;97460.73;259849;1105;115024;-69
2021/01/22 22:33:29;;;;;;;36.73;19.67;;;;;;;5.55;64.72;97461.78;259834;1105;115500;-67
2021/01/22 22:38:31;;;;;;;37.28;20.15;;;;;;;5.55;65.19;97471.48;259723;1105;115696;-66
2021/01/22 22:43:34;;;;;;;39.23;20.80;;;;;;;5.50;65.87;97450.67;259819;1105;114902;-67
2021/01/22 22:48:36;;;;;;;42.83;20.73;;;;;;;5.44;65.91;97451.11;259771;1104;115303;-69
2021/01/22 22:53:39;;;;;;;41.48;20.37;;;;;;;5.42;65.31;97463.55;259738;1105;115546;-65
2021/01/22 22:58:42;;;;;;;42.37;19.93;;;;;;;5.40;66.20;97461.02;259896;1104;115113;-68
2021/01/22 23:03:55;;;;;;;41.23;21.33;;;;;;;5.42;65.53;97443.28;259780;1105;115561;-68
2021/01/22 23:09:00;;;;;;;45.13;20.73;;;;;;;5.44;66.14;97457.22;259722;1105;114972;-68
2021/01/22 23:14:04;;;;;;;41.80;23.33;;;;;;;5.53;66.38;97473.38;257457;1105;115772;-65
2021/01/22 23:19:07;;;;;;;38.38;20.88;;;;;;;5.60;66.58;97461.45;259768;1105;115049;-69
2021/01/22 23:24:11;;;;;;;38.00;21.20;;;;;;;5.66;66.81;97453.97;259493;1105;117971;-65
2021/01/22 23:29:13;;;;;;;42.13;20.87;;;;;;;5.68;66.31;97456.52;259751;1105;114846;-67
2021/01/22 23:34:15;;;;;;;32.57;18.63;;;;;;;5.66;66.27;97456.61;259693;1108;114846;-67
2021/01/22 23:39:17;;;;;;;34.47;19.70;;;;;;;5.64;65.85;97465.61;259726;1104;115221;-66
2021/01/22 23:44:20;;;;;;;36.40;18.83;;;;;;;5.63;65.76;97458.61;257705;1105;115065;-69